createdAt,value
2019-04-29T00:00:02.752Z,1023.4
2019-04-29T00:05:02.690Z,1023.41
2019-04-29T00:10:03.132Z,1023.39
2019-04-29T00:15:02.541Z,1023.44
2019-04-29T00:20:02.993Z,1023.48
2019-04-29T00:25:02.420Z,1023.54
2019-04-29T00:30:02.858Z,1023.54
2019-04-29T00:35:03.299Z,1023.64
2019-04-29T00:40:02.723Z,1023.62
2019-04-29T00:45:03.162Z,1023.66
2019-04-29T00:50:02.578Z,1023.61
2019-04-29T00:55:03.024Z,1023.68
2019-04-29T01:00:02.442Z,1023.65
2019-04-29T01:05:02.885Z,1023.74
2019-04-29T01:10:03.431Z,1023.7
2019-04-29T01:15:02.831Z,1023.72
2019-04-29T01:20:03.294Z,1023.71
2019-04-29T01:25:02.809Z,1023.72
2019-04-29T01:30:03.297Z,1023.67
2019-04-29T01:35:02.695Z,1023.78
2019-04-29T01:40:03.104Z,1023.75
2019-04-29T01:45:02.545Z,1023.75
2019-04-29T01:50:02.993Z,1023.83
2019-04-29T01:55:02.494Z,1023.82
2019-04-29T02:00:02.948Z,1023.83
2019-04-29T02:05:03.395Z,1023.83
2019-04-29T02:10:02.807Z,1023.91
2019-04-29T02:15:03.268Z,1023.91
2019-04-29T02:20:02.776Z,1023.94
2019-04-29T02:25:03.224Z,1023.93
2019-04-29T02:30:02.651Z,1024.01
2019-04-29T02:35:03.124Z,1024.1
2019-04-29T02:40:02.604Z,1024.11
2019-04-29T02:45:03.051Z,1024.1
2019-04-29T02:50:02.469Z,1024.12
2019-04-29T02:55:02.949Z,1024.07
2019-04-29T03:00:03.777Z,1024.03
2019-04-29T03:05:03.234Z,1024.14
2019-04-29T03:10:02.749Z,1024.09
2019-04-29T03:15:03.199Z,1024.09
2019-04-29T03:20:02.618Z,1024.08
2019-04-29T03:25:03.161Z,1024.08
2019-04-29T03:30:02.584Z,1024.05
2019-04-29T03:35:03.124Z,1024.09
2019-04-29T03:40:02.794Z,1024.09
2019-04-29T03:45:03.299Z,1024.18
2019-04-29T03:50:02.710Z,1024.16
2019-04-29T03:55:03.253Z,1024.23
2019-04-29T04:00:02.650Z,1024.32
2019-04-29T04:05:03.176Z,1024.29
2019-04-29T04:10:02.655Z,1024.34
2019-04-29T04:15:03.219Z,1024.4
2019-04-29T04:20:02.717Z,1024.4
2019-04-29T04:25:03.175Z,1024.43
2019-04-29T04:30:03.329Z,1024.48
2019-04-29T04:35:02.807Z,1024.54
2019-04-29T04:40:03.248Z,1024.57
2019-04-29T04:45:02.662Z,1024.54
2019-04-29T04:50:02.261Z,1024.58
2019-04-29T04:55:02.752Z,1024.62
2019-04-29T05:00:03.184Z,1024.67
2019-04-29T05:05:02.609Z,1024.76
2019-04-29T05:10:03.044Z,1024.86
2019-04-29T05:15:02.496Z,1024.86
2019-04-29T05:20:03.112Z,1024.92
2019-04-29T05:25:02.541Z,1024.92
2019-04-29T05:30:02.975Z,1024.9
2019-04-29T05:35:02.392Z,1024.88
2019-04-29T05:40:02.835Z,1024.9
2019-04-29T05:45:03.294Z,1024.91
2019-04-29T05:50:01.990Z,1024.96
2019-04-29T05:55:03.065Z,1025.05
2019-04-29T06:00:02.554Z,1025.12
2019-04-29T06:05:02.996Z,1025.19
2019-04-29T06:10:02.419Z,1025.17
2019-04-29T06:15:02.867Z,1025.16
2019-04-29T06:20:03.309Z,1025.24
2019-04-29T06:25:02.722Z,1025.3
2019-04-29T06:30:04.816Z,1025.26
2019-04-29T06:35:02.378Z,1025.21
2019-04-29T06:40:02.817Z,1025.33
2019-04-29T06:45:03.267Z,1025.3
2019-04-29T06:50:02.662Z,1025.38
2019-04-29T06:55:03.127Z,1025.36
2019-04-29T07:00:02.535Z,1025.36
2019-04-29T07:05:03.014Z,1025.3
2019-04-29T07:10:02.516Z,1025.39
2019-04-29T07:15:02.964Z,1025.44
2019-04-29T07:20:03.373Z,1025.44
2019-04-29T07:25:02.896Z,1025.44
2019-04-29T07:30:06.520Z,1025.42
2019-04-29T07:35:05.860Z,1025.39
2019-04-29T07:40:03.614Z,1025.43
2019-04-29T07:45:03.093Z,1025.35
2019-04-29T07:50:02.543Z,1025.38
2019-04-29T07:55:03.029Z,1025.5
2019-04-29T08:00:02.427Z,1025.49
2019-04-29T08:05:02.930Z,1025.53
2019-04-29T08:10:03.580Z,1025.63
2019-04-29T08:15:07.706Z,1025.55
2019-04-29T08:20:05.322Z,1025.57
2019-04-29T08:25:02.741Z,1025.52
2019-04-29T08:30:06.635Z,1025.57
2019-04-29T08:35:03.364Z,1025.58
2019-04-29T08:40:15.542Z,1025.55
2019-04-29T08:45:02.253Z,1025.52
2019-04-29T08:50:02.676Z,1025.49
2019-04-29T08:55:02.370Z,1025.4
2019-04-29T09:00:02.840Z,1025.38
2019-04-29T09:05:06.776Z,1025.31
2019-04-29T09:10:03.638Z,1025.29
2019-04-29T09:15:03.263Z,1025.37
2019-04-29T09:20:02.794Z,1025.39
2019-04-29T09:25:03.279Z,1025.32
2019-04-29T09:30:02.697Z,1025.38
2019-04-29T09:35:03.403Z,1025.32
2019-04-29T09:40:02.810Z,1025.34
2019-04-29T09:45:03.312Z,1025.33
2019-04-29T09:50:02.747Z,1025.25
2019-04-29T09:55:04.007Z,1025.23
2019-04-29T10:00:05.475Z,1025.14
2019-04-29T10:05:02.515Z,1025.09
2019-04-29T10:10:06.847Z,1025.13
2019-04-29T10:15:03.252Z,1025.11
2019-04-29T10:20:02.710Z,1025.05
2019-04-29T10:25:04.584Z,1025.02
2019-04-29T10:30:03.035Z,1024.95
2019-04-29T10:35:03.607Z,1024.96
2019-04-29T10:40:10.929Z,1024.85
2019-04-29T10:45:03.154Z,1024.69
2019-04-29T10:50:02.665Z,1024.69
2019-04-29T10:55:03.111Z,1024.63
2019-04-29T11:00:02.762Z,1024.55
2019-04-29T11:05:03.173Z,1024.51
2019-04-29T11:10:01.885Z,1024.63
2019-04-29T11:15:03.486Z,1024.56
2019-04-29T11:20:02.907Z,1024.59
2019-04-29T11:25:03.614Z,1024.51
2019-04-29T11:30:04.783Z,1024.49
2019-04-29T11:35:03.376Z,1024.46
2019-04-29T11:40:01.972Z,1024.45
2019-04-29T11:45:03.635Z,1024.44
2019-04-29T11:50:03.283Z,1024.47
2019-04-29T11:55:02.786Z,1024.4
2019-04-29T12:00:03.243Z,1024.31
2019-04-29T12:05:04.281Z,1024.31
2019-04-29T12:10:06.489Z,1024.21
2019-04-29T12:15:03.195Z,1024.16
2019-04-29T12:20:02.643Z,1024.09
2019-04-29T12:25:03.188Z,1024.2
2019-04-29T12:30:02.577Z,1024.07
2019-04-29T12:35:03.070Z,1023.95
2019-04-29T12:40:01.696Z,1023.98
2019-04-29T12:45:03.176Z,1024.02
2019-04-29T12:50:02.604Z,1023.88
2019-04-29T12:55:19.310Z,1024.06
2019-04-29T13:01:08.479Z,1023.82
2019-04-29T13:05:03.059Z,1023.87
2019-04-29T13:10:06.891Z,1023.87
2019-04-29T13:15:03.578Z,1023.77
2019-04-29T13:20:07.297Z,1023.71
2019-04-29T13:25:02.982Z,1023.67
2019-04-29T13:30:02.394Z,1023.66
2019-04-29T13:35:05.359Z,1023.48
2019-04-29T13:40:03.392Z,1023.54
2019-04-29T13:45:09.392Z,1023.42
2019-04-29T13:50:17.240Z,1023.43
2019-04-29T13:55:16.527Z,1023.37
2019-04-29T14:00:02.800Z,1023.36
2019-04-29T14:05:03.254Z,1023.26
2019-04-29T14:10:02.662Z,1023.35
2019-04-29T14:15:03.118Z,1023.33
2019-04-29T14:20:02.681Z,1023.36
2019-04-29T14:25:03.193Z,1023.28
2019-04-29T14:30:03.029Z,1023.17
2019-04-29T14:35:02.531Z,1023.16
2019-04-29T14:40:07.181Z,1023.18
2019-04-29T14:45:03.245Z,1023.12
2019-04-29T14:50:02.645Z,1023.2
2019-04-29T14:55:03.081Z,1023.12
2019-04-29T15:00:02.707Z,1023.17
2019-04-29T15:05:07.370Z,1023.06
2019-04-29T15:10:02.516Z,1023.14
2019-04-29T15:15:03.100Z,1023.05
2019-04-29T15:20:02.684Z,1023.03
2019-04-29T15:25:03.203Z,1023.02
2019-04-29T15:30:02.689Z,1023.14
2019-04-29T15:35:03.127Z,1023.12
2019-04-29T15:40:02.732Z,1023.15
2019-04-29T15:45:03.202Z,1023.17
2019-04-29T15:50:17.377Z,1023.18
2019-04-29T15:55:02.862Z,1023.14
2019-04-29T16:00:20.207Z,1023.23
2019-04-29T16:05:04.640Z,1023.23
2019-04-29T16:10:03.262Z,1023.24
2019-04-29T16:15:02.714Z,1023.11
2019-04-29T16:20:03.267Z,1023.25
2019-04-29T16:30:02.920Z,1023.33
2019-04-29T16:35:03.438Z,1023.31
2019-04-29T16:40:02.886Z,1023.36
2019-04-29T16:45:06.186Z,1023.38
2019-04-29T16:50:04.656Z,1023.34
2019-04-29T16:55:04.173Z,1023.41
2019-04-29T17:00:06.318Z,1023.38
2019-04-29T17:05:03.378Z,1023.32
2019-04-29T17:10:02.849Z,1023.35
2019-04-29T17:15:05.043Z,1023.38
2019-04-29T17:20:02.893Z,1023.33
2019-04-29T17:25:03.454Z,1023.35
2019-04-29T17:30:07.421Z,1023.36
2019-04-29T17:35:03.674Z,1023.26
2019-04-29T17:35:19.043Z,1023.29
2019-04-29T17:40:03.257Z,1023.27
2019-04-29T17:45:10.599Z,1023.25
2019-04-29T17:50:06.504Z,1023.25
2019-04-29T17:55:02.855Z,1023.26
2019-04-29T18:00:05.163Z,1023.34
2019-04-29T18:05:02.911Z,1023.35
2019-04-29T18:10:05.053Z,1023.39
2019-04-29T18:15:02.607Z,1023.45
2019-04-29T18:20:08.531Z,1023.5
2019-04-29T18:25:02.789Z,1023.51
2019-04-29T18:30:03.306Z,1023.53
2019-04-29T18:35:02.748Z,1023.63
2019-04-29T18:40:03.568Z,1023.68
2019-04-29T18:45:05.002Z,1023.82
2019-04-29T18:50:02.910Z,1023.83
2019-04-29T18:55:03.446Z,1023.9
2019-04-29T19:00:04.785Z,1023.86
2019-04-29T19:05:03.106Z,1023.9
2019-04-29T19:10:02.660Z,1023.9
2019-04-29T19:15:04.945Z,1023.91
2019-04-29T19:20:02.591Z,1023.92
2019-04-29T19:25:03.025Z,1024.03
2019-04-29T19:30:02.476Z,1024.02
2019-04-29T19:35:02.957Z,1024.05
2019-04-29T19:40:02.447Z,1024.09
2019-04-29T19:45:06.269Z,1024.14
2019-04-29T19:50:03.309Z,1024.24
2019-04-29T19:55:03.360Z,1024.32
2019-04-29T20:00:03.288Z,1024.38
2019-04-29T20:05:05.126Z,1024.41
2019-04-29T20:10:05.791Z,1024.38
2019-04-29T20:15:03.345Z,1024.46
2019-04-29T20:20:05.064Z,1024.56
2019-04-29T20:25:03.267Z,1024.51
2019-04-29T20:30:03.222Z,1024.51
2019-04-29T20:35:06.966Z,1024.49
2019-04-29T20:40:02.819Z,1024.51
2019-04-29T20:45:05.210Z,1024.46
2019-04-29T20:50:03.080Z,1024.45
2019-04-29T20:55:02.892Z,1024.52
2019-04-29T21:00:02.594Z,1024.42
2019-04-29T21:05:03.360Z,1024.39
2019-04-29T21:10:04.832Z,1024.45
2019-04-29T21:15:09.382Z,1024.38
2019-04-29T21:20:03.152Z,1024.43
2019-04-29T21:25:02.598Z,1024.35
2019-04-29T21:30:03.054Z,1024.37
2019-04-29T21:35:02.481Z,1024.36
2019-04-29T21:40:07.149Z,1024.38
2019-04-29T21:45:04.687Z,1024.31
2019-04-29T21:50:02.984Z,1024.35
2019-04-29T21:55:02.409Z,1024.31
2019-04-29T22:00:02.876Z,1024.3
2019-04-29T22:05:05.114Z,1024.3
2019-04-29T22:10:02.701Z,1024.33
2019-04-29T22:15:03.165Z,1024.24
2019-04-29T22:20:04.097Z,1024.24
2019-04-29T22:25:05.930Z,1024.24
2019-04-29T22:30:03.053Z,1024.2
2019-04-29T22:35:02.579Z,1024.24
2019-04-29T22:40:03.200Z,1024.19
2019-04-29T22:45:02.873Z,1024.25
2019-04-29T22:50:04.464Z,1024.26
2019-04-29T22:55:02.639Z,1024.24
2019-04-29T23:00:07.287Z,1024.23
2019-04-29T23:05:03.068Z,1024.19
2019-04-29T23:10:02.497Z,1024.23
2019-04-29T23:15:02.937Z,1024.17
2019-04-29T23:20:03.389Z,1024.17
2019-04-29T23:25:02.889Z,1024.2
2019-04-29T23:30:03.415Z,1024.16
2019-04-29T23:35:06.275Z,1024.03
2019-04-29T23:40:03.000Z,1024.05
2019-04-29T23:45:02.420Z,1024.01
2019-04-29T23:50:02.860Z,1024.02
2019-04-29T23:55:03.428Z,1023.89
